createdAt,value
2018-07-03T00:01:04.515Z,2.20
2018-07-03T00:03:32.268Z,2.20
2018-07-03T00:06:00.056Z,2.03
2018-07-03T00:08:27.949Z,2.07
2018-07-03T00:10:55.894Z,2.37
2018-07-03T00:13:24.768Z,2.13
2018-07-03T00:15:52.584Z,2.20
2018-07-03T00:18:20.400Z,2.10
2018-07-03T00:20:48.303Z,2.30
2018-07-03T00:23:16.166Z,2.40
2018-07-03T00:25:44.368Z,2.03
2018-07-03T00:28:12.069Z,2.17
2018-07-03T00:30:39.956Z,2.03
2018-07-03T00:33:08.251Z,2.13
2018-07-03T00:35:36.404Z,2.47
2018-07-03T00:38:04.296Z,2.07
2018-07-03T00:40:32.016Z,2.30
2018-07-03T00:42:59.924Z,2.23
2018-07-03T00:45:27.772Z,2.20
2018-07-03T00:47:55.640Z,2.13
2018-07-03T00:50:23.518Z,2.07
2018-07-03T00:52:51.478Z,2.50
2018-07-03T00:55:19.338Z,2.60
2018-07-03T00:57:47.308Z,2.37
2018-07-03T01:00:20.590Z,2.40
2018-07-03T01:02:48.616Z,2.30
2018-07-03T01:05:16.346Z,2.63
2018-07-03T01:07:44.230Z,2.30
2018-07-03T01:10:12.035Z,2.60
2018-07-03T01:12:39.874Z,2.07
2018-07-03T01:15:07.882Z,2.40
2018-07-03T01:17:36.423Z,2.10
2018-07-03T01:20:04.718Z,2.47
2018-07-03T01:22:33.012Z,2.33
2018-07-03T01:25:01.288Z,2.57
2018-07-03T01:27:29.214Z,2.30
2018-07-03T01:29:57.056Z,2.47
2018-07-03T01:32:25.904Z,2.23
2018-07-03T01:34:53.955Z,2.13
2018-07-03T01:37:22.005Z,2.67
2018-07-03T01:39:49.929Z,2.70
2018-07-03T01:42:18.041Z,2.80
2018-07-03T01:44:45.940Z,2.53
2018-07-03T01:47:13.679Z,3.00
2018-07-03T01:49:41.554Z,2.70
2018-07-03T01:52:10.342Z,2.60
2018-07-03T01:54:38.192Z,3.07
2018-07-03T01:57:06.261Z,2.73
2018-07-03T01:59:34.601Z,2.77
2018-07-03T02:02:03.188Z,2.43
2018-07-03T02:04:31.030Z,2.53
2018-07-03T02:06:58.848Z,2.93
2018-07-03T02:09:27.371Z,2.73
2018-07-03T02:11:56.272Z,2.90
2018-07-03T02:14:24.481Z,2.70
2018-07-03T02:16:52.201Z,2.27
2018-07-03T02:19:20.473Z,2.77
2018-07-03T02:21:48.409Z,2.17
2018-07-03T02:24:16.283Z,2.37
2018-07-03T02:26:44.152Z,2.40
2018-07-03T02:29:11.932Z,2.37
2018-07-03T02:31:39.818Z,2.63
2018-07-03T02:34:07.712Z,2.60
2018-07-03T02:36:35.543Z,2.70
2018-07-03T02:39:03.790Z,2.50
2018-07-03T02:41:31.493Z,2.30
2018-07-03T02:43:59.352Z,2.17
2018-07-03T02:46:27.217Z,2.03
2018-07-03T02:48:55.080Z,2.77
2018-07-03T02:51:22.956Z,2.43
2018-07-03T02:53:50.929Z,2.47
2018-07-03T02:56:18.808Z,2.20
2018-07-03T02:58:46.660Z,2.10
2018-07-03T03:01:14.528Z,2.13
2018-07-03T03:03:42.439Z,2.13
2018-07-03T03:06:10.304Z,2.00
2018-07-03T03:08:38.239Z,2.07
2018-07-03T03:11:06.035Z,2.13
2018-07-03T03:13:33.796Z,2.10
2018-07-03T03:16:01.677Z,2.00
2018-07-03T03:18:29.536Z,1.70
2018-07-03T03:20:57.379Z,2.00
2018-07-03T03:23:25.403Z,1.60
2018-07-03T03:25:53.232Z,1.63
2018-07-03T03:28:21.093Z,2.40
2018-07-03T03:30:48.847Z,1.90
2018-07-03T03:33:16.733Z,1.73
2018-07-03T03:35:44.687Z,2.10
2018-07-03T03:38:12.433Z,1.43
2018-07-03T03:40:40.328Z,1.97
2018-07-03T03:43:08.196Z,1.60
2018-07-03T03:45:36.055Z,1.50
2018-07-03T03:48:03.934Z,1.57
2018-07-03T03:50:31.735Z,1.83
2018-07-03T03:52:59.592Z,1.70
2018-07-03T03:55:27.422Z,1.60
2018-07-03T03:57:55.347Z,1.60
2018-07-03T04:00:23.172Z,1.73
2018-07-03T04:02:51.045Z,1.40
2018-07-03T04:05:19.100Z,2.10
2018-07-03T04:07:47.089Z,1.80
2018-07-03T04:10:14.941Z,1.50
2018-07-03T04:12:42.838Z,1.80
2018-07-03T04:15:10.678Z,1.70
2018-07-03T04:17:39.375Z,1.93
2018-07-03T04:20:07.776Z,1.50
2018-07-03T04:22:35.812Z,1.70
2018-07-03T04:25:03.693Z,1.57
2018-07-03T04:27:31.564Z,1.60
2018-07-03T04:29:59.416Z,1.73
2018-07-03T04:32:27.294Z,1.70
2018-07-03T04:34:55.148Z,1.40
2018-07-03T04:37:23.209Z,1.90
2018-07-03T04:39:51.104Z,1.70
2018-07-03T04:42:18.807Z,1.60
2018-07-03T04:44:46.630Z,1.90
2018-07-03T04:47:14.497Z,1.60
2018-07-03T04:49:42.372Z,1.37
2018-07-03T04:52:10.235Z,1.50
2018-07-03T04:54:38.104Z,1.93
2018-07-03T04:57:05.965Z,2.03
2018-07-03T04:59:33.608Z,2.20
2018-07-03T05:02:01.509Z,1.70
2018-07-03T05:04:29.364Z,1.83
2018-07-03T05:06:57.244Z,1.67
2018-07-03T05:09:25.093Z,1.70
2018-07-03T05:11:52.999Z,1.60
2018-07-03T05:14:20.745Z,1.70
2018-07-03T05:16:52.852Z,1.97
2018-07-03T05:19:20.676Z,2.10
2018-07-03T05:21:48.640Z,2.50
2018-07-03T05:24:16.526Z,2.52
2018-07-03T05:26:44.384Z,2.47
2018-07-03T05:29:12.144Z,2.50
2018-07-03T05:31:40.367Z,2.40
2018-07-03T05:34:08.207Z,2.58
2018-07-03T05:36:36.059Z,2.20
2018-07-03T05:39:05.170Z,2.10
2018-07-03T05:41:32.932Z,2.25
2018-07-03T05:44:01.072Z,2.17
2018-07-03T05:46:29.159Z,2.40
2018-07-03T05:48:56.773Z,2.50
2018-07-03T05:51:24.572Z,2.87
2018-07-03T05:53:52.460Z,2.30
2018-07-03T05:56:20.343Z,2.62
2018-07-03T05:58:48.232Z,2.58
2018-07-03T06:01:16.053Z,2.83
2018-07-03T06:03:43.980Z,2.25
2018-07-03T06:06:11.696Z,2.60
2018-07-03T06:08:39.489Z,2.47
2018-07-03T06:11:07.338Z,2.72
2018-07-03T06:13:35.196Z,2.40
2018-07-03T06:16:03.127Z,2.85
2018-07-03T06:18:30.935Z,2.98
2018-07-03T06:20:58.820Z,2.47
2018-07-03T06:23:26.680Z,2.67
2018-07-03T06:25:54.541Z,3.10
2018-07-03T06:28:22.491Z,2.77
2018-07-03T06:30:50.296Z,2.87
2018-07-03T06:33:18.188Z,3.02
2018-07-03T06:35:46.046Z,3.15
2018-07-03T06:38:14.188Z,2.83
2018-07-03T06:40:42.087Z,3.15
2018-07-03T06:43:09.948Z,2.62
2018-07-03T06:45:37.729Z,2.67
2018-07-03T06:48:05.618Z,2.90
2018-07-03T06:50:33.340Z,2.33
2018-07-03T06:53:01.127Z,2.92
2018-07-03T06:55:28.973Z,2.52
2018-07-03T06:57:56.794Z,2.90
2018-07-03T07:00:24.576Z,2.47
2018-07-03T07:02:52.486Z,2.37
2018-07-03T07:05:20.369Z,2.00
2018-07-03T07:07:48.210Z,1.80
2018-07-03T07:10:16.068Z,2.35
2018-07-03T07:12:43.929Z,2.15
2018-07-03T07:15:11.812Z,1.95
2018-07-03T07:17:39.713Z,1.98
2018-07-03T07:20:07.591Z,2.12
2018-07-03T07:22:35.308Z,1.50
2018-07-03T07:25:03.052Z,2.00
2018-07-03T07:27:30.938Z,1.45
2018-07-03T07:29:58.806Z,1.70
2018-07-03T07:32:26.760Z,2.00
2018-07-03T07:34:54.657Z,2.20
2018-07-03T07:37:22.513Z,2.00
2018-07-03T07:39:50.383Z,1.53
2018-07-03T07:42:18.474Z,1.93
2018-07-03T07:44:46.345Z,1.80
2018-07-03T07:47:14.191Z,1.50
2018-07-03T07:49:42.070Z,1.70
2018-07-03T07:52:09.926Z,1.60
2018-07-03T07:54:37.699Z,1.30
2018-07-03T07:57:05.549Z,1.30
2018-07-03T07:59:33.458Z,1.27
2018-07-03T08:02:01.308Z,1.20
2018-07-03T08:04:29.855Z,1.30
2018-07-03T08:06:57.780Z,1.40
2018-07-03T08:09:25.850Z,1.50
2018-07-03T08:11:53.922Z,1.10
2018-07-03T08:14:21.788Z,1.20
2018-07-03T08:16:50.255Z,1.10
2018-07-03T08:19:18.141Z,1.10
2018-07-03T08:21:45.980Z,1.37
2018-07-03T08:24:13.765Z,1.70
2018-07-03T08:26:41.726Z,1.17
2018-07-03T08:29:09.588Z,1.40
2018-07-03T08:31:37.481Z,1.23
2018-07-03T08:34:05.417Z,1.40
2018-07-03T08:36:33.189Z,1.30
2018-07-03T08:39:01.065Z,1.20
2018-07-03T08:41:28.942Z,1.13
2018-07-03T08:43:56.793Z,1.70
2018-07-03T08:46:24.659Z,1.17
2018-07-03T08:48:52.415Z,1.27
2018-07-03T08:51:20.310Z,1.10
2018-07-03T08:53:48.187Z,1.10
2018-07-03T08:56:16.105Z,1.10
2018-07-03T08:58:44.024Z,1.10
2018-07-03T09:01:11.832Z,1.20
2018-07-03T09:03:39.736Z,1.20
2018-07-03T09:06:07.596Z,1.10
2018-07-03T09:08:35.515Z,1.17
2018-07-03T09:11:03.421Z,1.53
2018-07-03T09:13:31.371Z,1.40
2018-07-03T09:15:59.285Z,1.60
2018-07-03T09:18:27.152Z,1.30
2018-07-03T09:20:55.058Z,1.20
2018-07-03T09:23:23.520Z,1.20
2018-07-03T09:25:51.380Z,1.33
2018-07-03T09:28:19.255Z,1.40
2018-07-03T09:30:47.165Z,1.40
2018-07-03T09:33:14.972Z,1.42
2018-07-03T09:35:42.861Z,1.50
2018-07-03T09:38:10.733Z,1.40
2018-07-03T09:40:38.960Z,1.60
2018-07-03T09:43:07.430Z,1.60
2018-07-03T09:45:35.158Z,1.30
2018-07-03T09:48:03.300Z,1.30
2018-07-03T09:50:31.169Z,1.50
2018-07-03T09:52:59.048Z,1.80
2018-07-03T09:55:26.957Z,1.67
2018-07-03T09:57:55.000Z,1.40
2018-07-03T10:00:27.911Z,1.20
2018-07-03T10:02:56.145Z,1.40
2018-07-03T10:05:24.141Z,1.57
2018-07-03T10:07:52.085Z,1.42
2018-07-03T10:10:19.976Z,1.52
2018-07-03T10:12:48.009Z,1.30
2018-07-03T10:15:15.899Z,1.25
2018-07-03T10:17:43.900Z,1.20
2018-07-03T10:20:11.677Z,1.40
2018-07-03T10:22:39.558Z,1.40
2018-07-03T10:25:07.400Z,1.10
2018-07-03T10:27:35.241Z,1.30
2018-07-03T10:30:03.148Z,1.20
2018-07-03T10:32:30.980Z,1.25
2018-07-03T10:34:58.856Z,1.47
2018-07-03T10:37:26.745Z,1.40
2018-07-03T10:39:54.625Z,1.22
2018-07-03T10:42:22.492Z,1.30
2018-07-03T10:44:50.352Z,1.40
2018-07-03T10:47:18.305Z,1.50
2018-07-03T10:49:46.144Z,1.37
2018-07-03T10:52:14.018Z,1.40
2018-07-03T10:54:42.120Z,1.60
2018-07-03T10:57:10.054Z,1.62
2018-07-03T10:59:37.990Z,1.17
2018-07-03T11:02:06.305Z,1.20
2018-07-03T11:04:34.224Z,1.30
2018-07-03T11:07:02.064Z,1.27
2018-07-03T11:09:29.914Z,1.42
2018-07-03T11:11:57.681Z,1.20
2018-07-03T11:14:25.452Z,1.62
2018-07-03T11:16:53.319Z,1.40
2018-07-03T11:19:21.182Z,1.30
2018-07-03T11:21:49.056Z,1.22
2018-07-03T11:24:16.900Z,1.55
2018-07-03T11:26:44.792Z,1.57
2018-07-03T11:29:12.508Z,1.42
2018-07-03T11:31:40.366Z,1.30
2018-07-03T11:34:08.396Z,1.50
2018-07-03T11:36:36.282Z,1.60
2018-07-03T11:39:04.781Z,1.60
2018-07-03T11:41:33.228Z,1.30
2018-07-03T11:44:01.104Z,1.50
2018-07-03T11:46:29.174Z,1.35
2018-07-03T11:48:57.041Z,1.40
2018-07-03T11:51:25.080Z,1.30
2018-07-03T11:53:52.860Z,1.40
2018-07-03T11:56:20.768Z,1.30
2018-07-03T11:58:48.964Z,1.60
2018-07-03T12:01:16.828Z,1.40
2018-07-03T12:03:44.829Z,1.40
2018-07-03T12:06:12.620Z,1.32
2018-07-03T12:08:40.489Z,1.70
2018-07-03T12:11:08.367Z,1.82
2018-07-03T12:13:36.232Z,1.50
2018-07-03T12:16:04.120Z,2.10
2018-07-03T12:18:37.200Z,1.50
2018-07-03T12:21:05.065Z,1.37
2018-07-03T12:23:34.309Z,1.42
2018-07-03T12:26:02.416Z,1.57
2018-07-03T12:28:30.293Z,1.60
2018-07-03T12:30:58.269Z,1.50
2018-07-03T12:33:26.264Z,1.67
2018-07-03T12:35:54.117Z,1.60
2018-07-03T12:38:22.005Z,1.42
2018-07-03T12:40:49.807Z,1.60
2018-07-03T12:43:17.632Z,1.47
2018-07-03T12:45:45.447Z,1.37
2018-07-03T12:48:13.544Z,1.35
2018-07-03T12:50:41.443Z,1.40
2018-07-03T12:53:09.300Z,1.40
2018-07-03T12:55:37.213Z,1.70
2018-07-03T12:58:05.044Z,1.60
2018-07-03T13:00:32.724Z,1.60
2018-07-03T13:03:00.569Z,1.60
2018-07-03T13:05:28.421Z,1.57
2018-07-03T13:07:56.410Z,1.47
2018-07-03T13:10:24.239Z,1.40
2018-07-03T13:12:52.035Z,1.50
2018-07-03T13:15:19.889Z,1.60
2018-07-03T13:17:47.792Z,1.60
2018-07-03T13:20:15.622Z,1.72
2018-07-03T13:22:44.331Z,1.50
2018-07-03T13:25:12.689Z,1.60
2018-07-03T13:27:40.480Z,1.80
2018-07-03T13:30:09.227Z,1.60
2018-07-03T13:32:37.356Z,1.60
2018-07-03T13:35:05.744Z,1.57
2018-07-03T13:37:33.565Z,1.45
2018-07-03T13:40:01.450Z,1.60
2018-07-03T13:42:29.293Z,1.62
2018-07-03T13:44:57.357Z,1.57
2018-07-03T13:47:25.284Z,1.87
2018-07-03T13:49:53.137Z,1.55
2018-07-03T13:52:20.901Z,1.50
2018-07-03T13:54:48.759Z,1.77
2018-07-03T13:57:16.812Z,2.77
2018-07-03T13:59:44.909Z,2.92
2018-07-03T14:02:12.680Z,2.70
2018-07-03T14:04:41.122Z,2.62
2018-07-03T14:07:08.909Z,2.87
2018-07-03T14:09:37.213Z,3.00
2018-07-03T14:12:05.152Z,3.47
2018-07-03T14:14:32.823Z,2.22
2018-07-03T14:17:00.793Z,1.65
2018-07-03T14:19:28.668Z,1.90
2018-07-03T14:21:56.688Z,2.22
2018-07-03T14:24:24.499Z,2.10
2018-07-03T14:26:52.453Z,1.80
2018-07-03T14:29:20.413Z,2.15
2018-07-03T14:31:48.296Z,2.02
2018-07-03T14:34:16.228Z,2.00
2018-07-03T14:36:44.049Z,1.85
2018-07-03T14:39:13.636Z,2.15
2018-07-03T14:41:42.284Z,1.80
2018-07-03T14:44:10.390Z,1.90
2018-07-03T14:46:38.288Z,1.72
2018-07-03T14:49:06.239Z,1.80
2018-07-03T14:51:34.142Z,1.60
2018-07-03T14:54:01.980Z,1.70
2018-07-03T14:56:29.845Z,1.72
2018-07-03T14:58:57.900Z,2.33
2018-07-03T15:01:25.684Z,1.60
2018-07-03T15:03:53.690Z,1.30
2018-07-03T15:06:21.545Z,3.00
2018-07-03T15:08:49.395Z,1.57
2018-07-03T15:11:17.296Z,1.70
2018-07-03T15:13:45.150Z,1.82
2018-07-03T15:16:12.783Z,1.75
2018-07-03T15:18:46.176Z,1.50
2018-07-03T15:21:14.054Z,1.65
2018-07-03T15:23:42.113Z,1.82
2018-07-03T15:26:10.068Z,1.75
2018-07-03T15:28:37.896Z,1.50
2018-07-03T15:31:05.657Z,2.10
2018-07-03T15:33:33.471Z,1.52
2018-07-03T15:36:01.268Z,1.52
2018-07-03T15:38:29.538Z,1.60
2018-07-03T15:40:57.316Z,1.50
2018-07-03T15:43:25.184Z,1.40
2018-07-03T15:45:53.074Z,2.58
2018-07-03T15:48:20.921Z,2.12
2018-07-03T15:50:48.785Z,1.60
2018-07-03T15:53:16.652Z,1.70
2018-07-03T15:55:44.520Z,1.70
2018-07-03T15:58:12.332Z,1.55
2018-07-03T16:00:40.157Z,1.65
2018-07-03T16:03:13.228Z,1.72
2018-07-03T16:05:46.332Z,1.60
2018-07-03T16:08:19.533Z,1.62
2018-07-03T16:10:47.392Z,1.62
2018-07-03T16:13:15.335Z,1.57
2018-07-03T16:15:43.035Z,1.98
2018-07-03T16:18:10.793Z,1.42
2018-07-03T16:20:40.950Z,1.35
2018-07-03T16:23:08.975Z,1.42
2018-07-03T16:25:36.853Z,1.35
2018-07-03T16:28:04.725Z,1.50
2018-07-03T16:30:32.388Z,1.27
2018-07-03T16:33:00.332Z,1.50
2018-07-03T16:35:28.409Z,1.55
2018-07-03T16:37:56.293Z,1.72
2018-07-03T16:40:24.156Z,1.40
2018-07-03T16:42:52.032Z,1.50
2018-07-03T16:45:19.876Z,1.55
2018-07-03T16:47:47.772Z,1.62
2018-07-03T16:50:15.636Z,1.40
2018-07-03T16:52:43.623Z,1.40
2018-07-03T16:55:11.648Z,1.40
2018-07-03T16:57:39.691Z,1.30
2018-07-03T17:00:07.512Z,1.42
2018-07-03T17:02:35.543Z,1.40
2018-07-03T17:05:03.354Z,1.40
2018-07-03T17:07:31.237Z,1.57
2018-07-03T17:09:59.140Z,1.40
2018-07-03T17:12:26.969Z,1.42
2018-07-03T17:14:54.836Z,1.70
2018-07-03T17:17:22.697Z,1.75
2018-07-03T17:19:50.607Z,1.30
2018-07-03T17:22:18.440Z,1.67
2018-07-03T17:24:46.480Z,1.45
2018-07-03T17:27:14.274Z,1.50
2018-07-03T17:29:42.160Z,1.30
2018-07-03T17:32:10.020Z,1.47
2018-07-03T17:34:37.889Z,1.40
2018-07-03T17:37:05.628Z,1.40
2018-07-03T17:39:38.728Z,1.65
2018-07-03T17:42:11.768Z,1.40
2018-07-03T17:44:42.152Z,1.75
2018-07-03T17:47:10.030Z,1.30
2018-07-03T17:49:38.062Z,1.65
2018-07-03T17:52:05.848Z,1.50
2018-07-03T17:54:33.635Z,1.55
2018-07-03T17:57:01.623Z,1.55
2018-07-03T17:59:29.456Z,1.70
2018-07-03T18:01:57.320Z,1.60
2018-07-03T18:04:25.219Z,1.37
2018-07-03T18:06:53.202Z,1.52
2018-07-03T18:09:21.064Z,1.80
2018-07-03T18:11:48.903Z,1.42
2018-07-03T18:14:16.786Z,1.98
2018-07-03T18:16:45.264Z,1.60
2018-07-03T18:19:18.248Z,1.70
2018-07-03T18:21:46.176Z,1.85
2018-07-03T18:24:14.828Z,1.92
2018-07-03T18:26:42.701Z,2.08
2018-07-03T18:29:10.531Z,1.75
2018-07-03T18:31:38.412Z,1.45
2018-07-03T18:34:06.384Z,1.67
2018-07-03T18:36:34.416Z,1.77
2018-07-03T18:39:02.421Z,2.12
2018-07-03T18:41:30.197Z,2.10
2018-07-03T18:43:58.242Z,2.47
2018-07-03T18:46:26.016Z,2.00
2018-07-03T18:48:53.815Z,1.92
2018-07-03T18:51:21.667Z,1.98
2018-07-03T18:53:49.523Z,1.62
2018-07-03T18:56:17.372Z,1.80
2018-07-03T18:58:45.392Z,1.75
2018-07-03T19:01:13.256Z,1.72
2018-07-03T19:10:27.264Z,2.00
2018-07-03T19:12:54.964Z,1.73
2018-07-03T19:15:22.857Z,2.07
2018-07-03T19:17:51.369Z,1.80
2018-07-03T19:20:19.212Z,1.80
2018-07-03T19:22:47.481Z,2.10
2018-07-03T19:25:15.257Z,1.67
2018-07-03T19:27:43.120Z,1.90
2018-07-03T19:30:10.995Z,15.70
2018-07-03T19:32:38.857Z,12.10
2018-07-03T19:35:06.744Z,13.90
2018-07-03T19:37:34.582Z,8.27
2018-07-03T19:40:02.484Z,6.53
2018-07-03T19:42:30.367Z,4.87
2018-07-03T19:44:58.194Z,4.20
2018-07-03T19:47:26.089Z,3.60
2018-07-03T19:49:53.932Z,2.90
2018-07-03T19:52:22.313Z,2.80
2018-07-03T19:54:50.266Z,2.70
2018-07-03T19:57:18.170Z,2.53
2018-07-03T19:59:46.784Z,2.07
2018-07-03T20:02:14.491Z,2.10
2018-07-03T20:04:42.388Z,2.40
2018-07-03T20:07:10.327Z,2.10
2018-07-03T20:11:07.465Z,2.10
2018-07-03T20:13:42.182Z,2.40
2018-07-03T20:16:10.501Z,2.60
2018-07-03T20:18:38.500Z,2.13
2018-07-03T20:21:07.797Z,2.40
2018-07-03T20:23:35.660Z,2.10
2018-07-03T20:26:03.721Z,2.17
2018-07-03T20:28:31.507Z,11.37
2018-07-03T20:30:59.361Z,2.47
2018-07-03T20:33:27.250Z,2.13
2018-07-03T20:35:54.994Z,2.03
2018-07-03T20:38:22.848Z,1.87
2018-07-03T20:40:52.609Z,1.93
2018-07-03T20:43:20.532Z,1.87
2018-07-03T20:47:17.592Z,2.40
2018-07-03T20:49:46.136Z,2.07
2018-07-03T20:52:13.944Z,1.97
2018-07-03T20:54:41.794Z,2.03
2018-07-03T20:57:09.764Z,2.10
2018-07-03T20:59:37.748Z,2.17
2018-07-03T21:02:05.605Z,2.63
2018-07-03T21:04:33.400Z,3.03
2018-07-03T21:07:01.268Z,2.50
2018-07-03T21:09:29.133Z,2.77
2018-07-03T21:11:57.005Z,3.10
2018-07-03T21:14:24.860Z,2.67
2018-07-03T21:16:52.638Z,2.70
2018-07-03T21:19:24.093Z,3.03
2018-07-03T21:21:52.789Z,2.37
2018-07-03T21:24:20.667Z,2.60
2018-07-03T21:26:48.403Z,2.83
2018-07-03T21:29:16.270Z,2.87
2018-07-03T21:31:44.320Z,2.47
2018-07-03T21:34:12.017Z,2.80
2018-07-03T21:36:40.520Z,2.63
2018-07-03T21:39:08.378Z,2.40
2018-07-03T21:41:36.115Z,2.80
2018-07-03T21:44:03.991Z,3.80
2018-07-03T21:46:32.205Z,3.20
2018-07-03T21:49:00.042Z,2.70
2018-07-03T21:51:27.902Z,2.77
2018-07-03T21:53:55.705Z,2.40
2018-07-03T21:56:23.541Z,2.67
2018-07-03T21:58:51.403Z,2.80
2018-07-03T22:01:19.292Z,2.33
2018-07-03T22:03:47.177Z,2.60
2018-07-03T22:06:15.047Z,2.63
2018-07-03T22:08:43.092Z,2.47
2018-07-03T22:11:10.973Z,2.23
2018-07-03T22:13:38.847Z,2.80
2018-07-03T22:16:06.730Z,3.07
2018-07-03T22:18:34.657Z,3.43
2018-07-03T22:21:02.501Z,2.97
2018-07-03T22:23:30.418Z,3.37
2018-07-03T22:25:58.307Z,3.27
2018-07-03T22:28:26.052Z,3.37
2018-07-03T22:30:54.033Z,3.13
2018-07-03T22:33:21.896Z,3.90
2018-07-03T22:35:49.865Z,4.70
2018-07-03T22:38:18.512Z,3.47
2018-07-03T22:40:46.317Z,3.57
2018-07-03T22:43:14.175Z,3.57
2018-07-03T22:45:42.101Z,4.10
2018-07-03T22:48:10.045Z,4.37
2018-07-03T22:50:37.936Z,4.40
2018-07-03T22:53:05.864Z,5.00
2018-07-03T22:55:33.925Z,4.53
2018-07-03T22:58:01.853Z,3.77
2018-07-03T23:00:29.980Z,4.23
2018-07-03T23:02:57.844Z,3.63
2018-07-03T23:05:25.729Z,4.10
2018-07-03T23:07:53.766Z,3.73
2018-07-03T23:10:21.685Z,4.10
2018-07-03T23:12:50.157Z,3.80
2018-07-03T23:15:18.161Z,3.47
2018-07-03T23:17:46.100Z,3.60
2018-07-03T23:22:46.724Z,3.03
2018-07-03T23:25:14.648Z,3.03
2018-07-03T23:27:42.565Z,2.97
2018-07-03T23:30:10.453Z,2.90
2018-07-03T23:32:38.448Z,3.07
2018-07-03T23:35:06.676Z,3.00
2018-07-03T23:37:34.561Z,2.50
2018-07-03T23:40:02.732Z,2.80
2018-07-03T23:42:30.595Z,3.23
2018-07-03T23:44:58.706Z,2.93
2018-07-03T23:47:32.046Z,3.00
2018-07-03T23:51:34.408Z,2.60
2018-07-03T23:54:07.856Z,2.40
2018-07-03T23:56:42.134Z,2.10
2018-07-03T23:59:15.655Z,3.00
